sensor_id;sensor_type;location;lat;lon;timestamp;pressure;altitude;pressure_sealevel;temperature;humidity
17764;BME280;22245;52.832;13.816;2023-05-11T00:02:44;101256.47;;;14.35;65.04
17764;BME280;22245;52.832;13.816;2023-05-11T00:06:07;101254.94;;;14.32;65.42
17764;BME280;22245;52.832;13.816;2023-05-11T00:09:28;101254.09;;;14.31;65.45
17764;BME280;22245;52.832;13.816;2023-05-11T00:12:50;101254.09;;;14.31;65.78
17764;BME280;22245;52.832;13.816;2023-05-11T00:16:12;101258.63;;;14.31;65.63
17764;BME280;22245;52.832;13.816;2023-05-11T00:19:34;101259.44;;;14.31;65.04
17764;BME280;22245;52.832;13.816;2023-05-11T00:22:56;101253.97;;;14.33;63.99
17764;BME280;22245;52.832;13.816;2023-05-11T00:26:18;101259.03;;;14.36;63.60
17764;BME280;22245;52.832;13.816;2023-05-11T00:29:40;101250.81;;;14.38;63.47
17764;BME280;22245;52.832;13.816;2023-05-11T00:33:02;101252.38;;;14.40;64.13
17764;BME280;22245;52.832;13.816;2023-05-11T00:36:24;101261.41;;;14.39;62.86
17764;BME280;22245;52.832;13.816;2023-05-11T00:39:47;101256.91;;;14.40;62.85
17764;BME280;22245;52.832;13.816;2023-05-11T00:43:08;101250.13;;;14.45;62.20
17764;BME280;22245;52.832;13.816;2023-05-11T00:46:30;101262.00;;;14.43;62.49
17764;BME280;22245;52.832;13.816;2023-05-11T00:49:53;101258.31;;;14.44;62.24
17764;BME280;22245;52.832;13.816;2023-05-11T00:53:15;101256.34;;;14.46;62.18
17764;BME280;22245;52.832;13.816;2023-05-11T00:56:38;101262.41;;;14.48;62.27
17764;BME280;22245;52.832;13.816;2023-05-11T01:00:00;101261.69;;;14.46;61.99
17764;BME280;22245;52.832;13.816;2023-05-11T01:03:23;101262.53;;;14.46;61.90
17764;BME280;22245;52.832;13.816;2023-05-11T01:06:51;101261.81;;;14.44;61.08
17764;BME280;22245;52.832;13.816;2023-05-11T01:10:22;101263.97;;;14.41;62.44
17764;BME280;22245;52.832;13.816;2023-05-11T01:13:50;101266.66;;;14.41;61.44
17764;BME280;22245;52.832;13.816;2023-05-11T01:17:18;101273.81;;;14.40;61.77
17764;BME280;22245;52.832;13.816;2023-05-11T01:20:45;101270.44;;;14.38;61.80
17764;BME280;22245;52.832;13.816;2023-05-11T01:24:22;101264.38;;;14.36;61.57
17764;BME280;22245;52.832;13.816;2023-05-11T01:28:00;101264.81;;;14.31;61.63
17764;BME280;22245;52.832;13.816;2023-05-11T01:31:31;101267.78;;;14.28;61.90
17764;BME280;22245;52.832;13.816;2023-05-11T01:34:59;101275.81;;;14.28;62.04
17764;BME280;22245;52.832;13.816;2023-05-11T01:38:23;101282.31;;;14.26;62.19
17764;BME280;22245;52.832;13.816;2023-05-11T01:41:50;101280.03;;;14.21;62.63
17764;BME280;22245;52.832;13.816;2023-05-11T01:45:14;101284.13;;;14.15;63.83
17764;BME280;22245;52.832;13.816;2023-05-11T01:48:40;101279.50;;;14.08;63.02
17764;BME280;22245;52.832;13.816;2023-05-11T01:52:04;101283.44;;;14.03;63.52
17764;BME280;22245;52.832;13.816;2023-05-11T01:55:30;101293.59;;;14.00;63.43
17764;BME280;22245;52.832;13.816;2023-05-11T01:58:53;101289.63;;;13.94;63.57
17764;BME280;22245;52.832;13.816;2023-05-11T02:02:17;101300.91;;;13.88;63.66
17764;BME280;22245;52.832;13.816;2023-05-11T02:05:41;101289.63;;;13.84;63.58
17764;BME280;22245;52.832;13.816;2023-05-11T02:09:04;101302.44;;;13.81;64.26
17764;BME280;22245;52.832;13.816;2023-05-11T02:12:28;101300.16;;;13.76;64.42
17764;BME280;22245;52.832;13.816;2023-05-11T02:15:54;101303.41;;;13.70;64.58
17764;BME280;22245;52.832;13.816;2023-05-11T02:19:17;101304.38;;;13.69;64.70
17764;BME280;22245;52.832;13.816;2023-05-11T02:22:42;101316.22;;;13.66;65.05
17764;BME280;22245;52.832;13.816;2023-05-11T02:26:05;101323.69;;;13.63;65.51
17764;BME280;22245;52.832;13.816;2023-05-11T02:29:28;101321.81;;;13.63;65.44
17764;BME280;22245;52.832;13.816;2023-05-11T02:32:53;101318.44;;;13.61;65.80
17764;BME280;22245;52.832;13.816;2023-05-11T02:36:19;101319.31;;;13.62;65.36
17764;BME280;22245;52.832;13.816;2023-05-11T02:39:47;101323.78;;;13.61;65.53
17764;BME280;22245;52.832;13.816;2023-05-11T02:43:19;101328.44;;;13.59;65.29
17764;BME280;22245;52.832;13.816;2023-05-11T02:46:48;101332.25;;;13.56;65.48
17764;BME280;22245;52.832;13.816;2023-05-11T02:50:12;101329.69;;;13.55;65.40
17764;BME280;22245;52.832;13.816;2023-05-11T02:53:36;101332.66;;;13.52;65.45
17764;BME280;22245;52.832;13.816;2023-05-11T02:57:02;101332.09;;;13.48;66.35
17764;BME280;22245;52.832;13.816;2023-05-11T03:00:24;101331.63;;;13.43;66.16
17764;BME280;22245;52.832;13.816;2023-05-11T03:03:46;101329.19;;;13.40;65.87
17764;BME280;22245;52.832;13.816;2023-05-11T03:07:08;101330.19;;;13.39;65.25
17764;BME280;22245;52.832;13.816;2023-05-11T03:10:30;101328.47;;;13.38;64.58
17764;BME280;22245;52.832;13.816;2023-05-11T03:13:54;101327.50;;;13.39;64.12
17764;BME280;22245;52.832;13.816;2023-05-11T03:17:16;101327.66;;;13.37;64.51
17764;BME280;22245;52.832;13.816;2023-05-11T03:20:41;101332.13;;;13.37;64.10
17764;BME280;22245;52.832;13.816;2023-05-11T03:24:05;101334.09;;;13.35;64.72
17764;BME280;22245;52.832;13.816;2023-05-11T03:27:27;101338.19;;;13.29;66.04
17764;BME280;22245;52.832;13.816;2023-05-11T03:30:52;101331.66;;;13.22;66.48
17764;BME280;22245;52.832;13.816;2023-05-11T03:34:14;101336.72;;;13.15;66.51
17764;BME280;22245;52.832;13.816;2023-05-11T03:37:38;101338.78;;;13.11;66.65
17764;BME280;22245;52.832;13.816;2023-05-11T03:41:01;101338.63;;;13.03;66.78
17764;BME280;22245;52.832;13.816;2023-05-11T03:44:25;101341.69;;;12.98;67.08
17764;BME280;22245;52.832;13.816;2023-05-11T03:47:51;101344.75;;;12.94;67.11
17764;BME280;22245;52.832;13.816;2023-05-11T03:51:13;101347.69;;;12.91;67.04
17764;BME280;22245;52.832;13.816;2023-05-11T03:54:35;101342.75;;;12.86;67.49
17764;BME280;22245;52.832;13.816;2023-05-11T03:57:57;101338.75;;;12.80;67.78
17764;BME280;22245;52.832;13.816;2023-05-11T04:01:20;101343.53;;;12.77;67.57
17764;BME280;22245;52.832;13.816;2023-05-11T04:04:43;101345.59;;;12.73;67.46
17764;BME280;22245;52.832;13.816;2023-05-11T04:08:05;101344.19;;;12.69;67.81
17764;BME280;22245;52.832;13.816;2023-05-11T04:11:27;101343.56;;;12.65;67.92
17764;BME280;22245;52.832;13.816;2023-05-11T04:14:49;101344.28;;;12.67;66.87
17764;BME280;22245;52.832;13.816;2023-05-11T04:18:11;101347.56;;;12.71;66.38
17764;BME280;22245;52.832;13.816;2023-05-11T04:21:34;101344.38;;;12.77;66.06
17764;BME280;22245;52.832;13.816;2023-05-11T04:24:56;101343.13;;;12.81;65.25
17764;BME280;22245;52.832;13.816;2023-05-11T04:28:17;101343.34;;;12.90;65.12
17764;BME280;22245;52.832;13.816;2023-05-11T04:31:39;101344.63;;;12.95;65.04
17764;BME280;22245;52.832;13.816;2023-05-11T04:35:00;101349.44;;;13.01;64.84
17764;BME280;22245;52.832;13.816;2023-05-11T04:38:28;101353.41;;;13.07;64.72
17764;BME280;22245;52.832;13.816;2023-05-11T04:41:50;101355.44;;;13.15;64.36
17764;BME280;22245;52.832;13.816;2023-05-11T04:45:11;101352.22;;;13.21;64.12
17764;BME280;22245;52.832;13.816;2023-05-11T04:48:33;101352.78;;;13.25;64.34
17764;BME280;22245;52.832;13.816;2023-05-11T04:51:56;101355.94;;;13.30;63.87
17764;BME280;22245;52.832;13.816;2023-05-11T04:55:19;101370.56;;;13.36;63.98
17764;BME280;22245;52.832;13.816;2023-05-11T04:58:42;101375.38;;;13.42;63.55
17764;BME280;22245;52.832;13.816;2023-05-11T05:02:04;101374.03;;;13.48;63.38
17764;BME280;22245;52.832;13.816;2023-05-11T05:05:25;101382.50;;;13.53;63.05
17764;BME280;22245;52.832;13.816;2023-05-11T05:08:47;101383.66;;;13.60;62.92
17764;BME280;22245;52.832;13.816;2023-05-11T05:12:10;101385.13;;;13.64;62.84
17764;BME280;22245;52.832;13.816;2023-05-11T05:15:31;101376.53;;;13.70;62.94
17764;BME280;22245;52.832;13.816;2023-05-11T05:18:53;101377.81;;;13.76;62.16
17764;BME280;22245;52.832;13.816;2023-05-11T05:22:15;101379.81;;;13.84;62.19
17764;BME280;22245;52.832;13.816;2023-05-11T05:25:36;101381.09;;;13.89;62.51
17764;BME280;22245;52.832;13.816;2023-05-11T05:29:01;101377.28;;;13.92;62.53
17764;BME280;22245;52.832;13.816;2023-05-11T05:32:22;101381.38;;;13.96;61.92
17764;BME280;22245;52.832;13.816;2023-05-11T05:35:44;101384.34;;;14.03;61.75
17764;BME280;22245;52.832;13.816;2023-05-11T05:39:08;101382.97;;;14.09;61.40
17764;BME280;22245;52.832;13.816;2023-05-11T05:42:32;101380.72;;;14.14;61.11
17764;BME280;22245;52.832;13.816;2023-05-11T05:45:55;101387.31;;;14.19;60.86
17764;BME280;22245;52.832;13.816;2023-05-11T05:49:19;101391.16;;;14.27;61.14
17764;BME280;22245;52.832;13.816;2023-05-11T05:52:40;101397.66;;;14.34;60.32
17764;BME280;22245;52.832;13.816;2023-05-11T05:56:30;101389.91;;;14.41;61.00
17764;BME280;22245;52.832;13.816;2023-05-11T05:59:54;101400.78;;;14.49;60.32
17764;BME280;22245;52.832;13.816;2023-05-11T06:03:18;101406.69;;;14.53;60.15
17764;BME280;22245;52.832;13.816;2023-05-11T06:06:40;101404.16;;;14.61;59.75
17764;BME280;22245;52.832;13.816;2023-05-11T06:10:02;101406.13;;;14.69;59.23
17764;BME280;22245;52.832;13.816;2023-05-11T06:13:24;101411.78;;;14.75;59.43
17764;BME280;22245;52.832;13.816;2023-05-11T06:16:45;101410.09;;;14.84;58.99
17764;BME280;22245;52.832;13.816;2023-05-11T06:20:09;101411.50;;;14.88;58.50
17764;BME280;22245;52.832;13.816;2023-05-11T06:23:31;101413.75;;;14.93;59.35
17764;BME280;22245;52.832;13.816;2023-05-11T06:26:53;101403.28;;;15.00;59.00
17764;BME280;22245;52.832;13.816;2023-05-11T06:30:15;101405.25;;;15.08;58.86
17764;BME280;22245;52.832;13.816;2023-05-11T06:33:40;101405.50;;;15.14;58.51
17764;BME280;22245;52.832;13.816;2023-05-11T06:37:12;101412.41;;;15.27;57.90
17764;BME280;22245;52.832;13.816;2023-05-11T06:40:41;101407.75;;;15.29;58.71
17764;BME280;22245;52.832;13.816;2023-05-11T06:44:04;101413.66;;;15.32;57.83
17764;BME280;22245;52.832;13.816;2023-05-11T06:47:29;101404.88;;;15.40;58.14
17764;BME280;22245;52.832;13.816;2023-05-11T06:50:51;101404.16;;;15.48;58.67
17764;BME280;22245;52.832;13.816;2023-05-11T06:54:14;101404.97;;;15.58;57.58
17764;BME280;22245;52.832;13.816;2023-05-11T06:57:36;101412.41;;;15.65;57.63
17764;BME280;22245;52.832;13.816;2023-05-11T07:00:58;101407.31;;;15.71;58.05
17764;BME280;22245;52.832;13.816;2023-05-11T07:04:20;101407.25;;;15.81;57.39
17764;BME280;22245;52.832;13.816;2023-05-11T07:07:42;101401.28;;;15.87;57.34
17764;BME280;22245;52.832;13.816;2023-05-11T07:11:05;101407.47;;;15.98;58.03
17764;BME280;22245;52.832;13.816;2023-05-11T07:14:26;101410.50;;;16.13;57.60
17764;BME280;22245;52.832;13.816;2023-05-11T07:17:47;101413.25;;;16.21;57.00
17764;BME280;22245;52.832;13.816;2023-05-11T07:21:09;101407.00;;;16.30;56.11
17764;BME280;22245;52.832;13.816;2023-05-11T07:24:30;101412.59;;;16.37;56.45
17764;BME280;22245;52.832;13.816;2023-05-11T07:27:53;101410.84;;;16.46;56.46
17764;BME280;22245;52.832;13.816;2023-05-11T07:31:15;101412.59;;;16.55;56.26
17764;BME280;22245;52.832;13.816;2023-05-11T07:34:36;101415.75;;;16.69;56.21
17764;BME280;22245;52.832;13.816;2023-05-11T07:37:58;101413.13;;;16.77;56.00
17764;BME280;22245;52.832;13.816;2023-05-11T07:41:20;101419.44;;;16.86;55.91
17764;BME280;22245;52.832;13.816;2023-05-11T07:44:46;101422.31;;;16.92;55.74
17764;BME280;22245;52.832;13.816;2023-05-11T07:48:08;101413.31;;;17.02;55.57
17764;BME280;22245;52.832;13.816;2023-05-11T07:51:29;101413.09;;;17.13;55.29
17764;BME280;22245;52.832;13.816;2023-05-11T07:54:51;101418.53;;;17.21;54.82
17764;BME280;22245;52.832;13.816;2023-05-11T07:58:13;101425.13;;;17.27;54.89
17764;BME280;22245;52.832;13.816;2023-05-11T08:01:36;101413.22;;;17.38;54.05
17764;BME280;22245;52.832;13.816;2023-05-11T08:04:57;101410.28;;;17.49;53.13
17764;BME280;22245;52.832;13.816;2023-05-11T08:08:19;101420.22;;;17.57;52.84
17764;BME280;22245;52.832;13.816;2023-05-11T08:11:41;101419.28;;;17.67;53.36
17764;BME280;22245;52.832;13.816;2023-05-11T08:15:03;101416.09;;;17.71;53.25
17764;BME280;22245;52.832;13.816;2023-05-11T08:18:26;101413.94;;;17.83;53.17
17764;BME280;22245;52.832;13.816;2023-05-11T08:21:48;101415.31;;;17.96;51.51
17764;BME280;22245;52.832;13.816;2023-05-11T08:25:10;101402.75;;;18.04;51.96
17764;BME280;22245;52.832;13.816;2023-05-11T08:28:32;101406.66;;;18.18;51.64
17764;BME280;22245;52.832;13.816;2023-05-11T08:31:54;101408.22;;;18.29;50.47
17764;BME280;22245;52.832;13.816;2023-05-11T08:35:17;101408.91;;;18.40;50.09
17764;BME280;22245;52.832;13.816;2023-05-11T08:38:40;101410.44;;;18.50;48.76
17764;BME280;22245;52.832;13.816;2023-05-11T08:42:02;101404.88;;;18.60;48.15
17764;BME280;22245;52.832;13.816;2023-05-11T08:45:26;101410.28;;;18.69;48.14
17764;BME280;22245;52.832;13.816;2023-05-11T08:48:48;101414.31;;;18.81;48.55
17764;BME280;22245;52.832;13.816;2023-05-11T08:52:13;101405.53;;;18.87;49.43
17764;BME280;22245;52.832;13.816;2023-05-11T08:55:37;101401.84;;;18.97;47.94
17764;BME280;22245;52.832;13.816;2023-05-11T08:59:01;101409.75;;;19.06;47.72
17764;BME280;22245;52.832;13.816;2023-05-11T09:02:24;101407.56;;;19.18;47.40
17764;BME280;22245;52.832;13.816;2023-05-11T09:05:47;101396.72;;;19.27;48.10
17764;BME280;22245;52.832;13.816;2023-05-11T09:09:10;101394.03;;;19.35;47.35
17764;BME280;22245;52.832;13.816;2023-05-11T09:12:32;101408.16;;;19.45;47.23
17764;BME280;22245;52.832;13.816;2023-05-11T09:15:53;101385.50;;;19.55;47.47
17764;BME280;22245;52.832;13.816;2023-05-11T09:19:15;101387.81;;;19.66;45.35
17764;BME280;22245;52.832;13.816;2023-05-11T09:22:41;101397.09;;;19.72;45.57
17764;BME280;22245;52.832;13.816;2023-05-11T09:26:12;101406.00;;;19.80;46.25
17764;BME280;22245;52.832;13.816;2023-05-11T09:29:34;101403.94;;;19.91;45.34
17764;BME280;22245;52.832;13.816;2023-05-11T09:32:56;101408.47;;;19.99;44.00
17764;BME280;22245;52.832;13.816;2023-05-11T09:36:22;101410.28;;;20.06;41.77
17764;BME280;22245;52.832;13.816;2023-05-11T09:39:43;101396.91;;;20.13;42.15
17764;BME280;22245;52.832;13.816;2023-05-11T09:43:29;101400.75;;;20.19;43.28
17764;BME280;22245;52.832;13.816;2023-05-11T09:46:51;101392.41;;;20.29;43.68
17764;BME280;22245;52.832;13.816;2023-05-11T09:50:17;101389.16;;;20.33;42.48
17764;BME280;22245;52.832;13.816;2023-05-11T09:53:44;101400.75;;;20.42;42.46
17764;BME280;22245;52.832;13.816;2023-05-11T09:57:06;101388.19;;;20.49;43.44
17764;BME280;22245;52.832;13.816;2023-05-11T10:00:31;101401.66;;;20.58;40.75
17764;BME280;22245;52.832;13.816;2023-05-11T10:03:52;101394.84;;;20.62;40.77
17764;BME280;22245;52.832;13.816;2023-05-11T10:07:26;101394.16;;;20.68;40.71
17764;BME280;22245;52.832;13.816;2023-05-11T10:10:48;101380.69;;;20.75;39.29
17764;BME280;22245;52.832;13.816;2023-05-11T10:14:11;101393.88;;;20.78;39.91
17764;BME280;22245;52.832;13.816;2023-05-11T10:17:35;101387.56;;;20.86;39.52
17764;BME280;22245;52.832;13.816;2023-05-11T10:20:58;101376.50;;;20.95;39.19
17764;BME280;22245;52.832;13.816;2023-05-11T10:24:19;101387.22;;;21.04;39.34
17764;BME280;22245;52.832;13.816;2023-05-11T10:27:41;101375.47;;;21.11;38.41
17764;BME280;22245;52.832;13.816;2023-05-11T10:31:04;101365.75;;;21.17;38.67
17764;BME280;22245;52.832;13.816;2023-05-11T10:34:28;101373.34;;;21.22;39.13
17764;BME280;22245;52.832;13.816;2023-05-11T10:37:51;101372.56;;;21.28;38.80
17764;BME280;22245;52.832;13.816;2023-05-11T10:41:24;101375.75;;;21.32;38.34
17764;BME280;22245;52.832;13.816;2023-05-11T10:44:59;101379.22;;;21.40;38.77
17764;BME280;22245;52.832;13.816;2023-05-11T10:48:48;101365.38;;;21.50;37.85
17764;BME280;22245;52.832;13.816;2023-05-11T10:56:08;101352.69;;;21.66;37.38
17764;BME280;22245;52.832;13.816;2023-05-11T10:59:56;101369.00;;;21.73;37.90
17764;BME280;22245;52.832;13.816;2023-05-11T11:03:29;101373.09;;;21.83;38.18
17764;BME280;22245;52.832;13.816;2023-05-11T11:07:03;101369.63;;;21.90;35.73
17764;BME280;22245;52.832;13.816;2023-05-11T11:10:32;101364.94;;;21.98;35.71
17764;BME280;22245;52.832;13.816;2023-05-11T11:13:58;101374.44;;;22.09;34.85
17764;BME280;22245;52.832;13.816;2023-05-11T11:17:24;101367.22;;;22.17;34.67
17764;BME280;22245;52.832;13.816;2023-05-11T11:20:48;101359.16;;;22.23;34.69
17764;BME280;22245;52.832;13.816;2023-05-11T11:24:43;101362.94;;;22.29;35.65
17764;BME280;22245;52.832;13.816;2023-05-11T11:28:07;101363.47;;;22.39;35.44
17764;BME280;22245;52.832;13.816;2023-05-11T11:31:30;101357.00;;;22.40;33.88
17764;BME280;22245;52.832;13.816;2023-05-11T11:34:52;101372.81;;;22.37;33.95
17764;BME280;22245;52.832;13.816;2023-05-11T11:38:15;101374.31;;;22.39;35.26
17764;BME280;22245;52.832;13.816;2023-05-11T11:41:38;101369.97;;;22.45;34.80
17764;BME280;22245;52.832;13.816;2023-05-11T11:45:29;101379.13;;;22.37;32.99
17764;BME280;22245;52.832;13.816;2023-05-11T11:49:05;101392.41;;;22.32;33.74
17764;BME280;22245;52.832;13.816;2023-05-11T11:52:32;101388.00;;;22.31;33.46
17764;BME280;22245;52.832;13.816;2023-05-11T11:55:54;101389.03;;;22.30;32.26
17764;BME280;22245;52.832;13.816;2023-05-11T11:59:16;101389.00;;;22.23;32.23
17764;BME280;22245;52.832;13.816;2023-05-11T12:02:41;101393.50;;;22.16;31.97
17764;BME280;22245;52.832;13.816;2023-05-11T12:06:04;101389.69;;;22.10;31.81
17764;BME280;22245;52.832;13.816;2023-05-11T12:09:28;101401.56;;;22.09;31.53
17764;BME280;22245;52.832;13.816;2023-05-11T12:12:50;101391.94;;;22.07;31.44
17764;BME280;22245;52.832;13.816;2023-05-11T12:16:15;101400.91;;;22.07;31.72
17764;BME280;22245;52.832;13.816;2023-05-11T12:19:40;101400.53;;;22.10;31.47
17764;BME280;22245;52.832;13.816;2023-05-11T12:23:01;101398.09;;;22.16;32.08
17764;BME280;22245;52.832;13.816;2023-05-11T12:26:25;101404.22;;;22.24;32.43
17764;BME280;22245;52.832;13.816;2023-05-11T12:29:48;101403.25;;;22.32;32.29
17764;BME280;22245;52.832;13.816;2023-05-11T12:33:13;101402.94;;;22.42;32.57
17764;BME280;22245;52.832;13.816;2023-05-11T12:36:37;101390.50;;;22.48;31.61
17764;BME280;22245;52.832;13.816;2023-05-11T12:39:58;101390.75;;;22.53;31.47
17764;BME280;22245;52.832;13.816;2023-05-11T12:43:21;101389.31;;;22.57;31.55
17764;BME280;22245;52.832;13.816;2023-05-11T12:46:45;101401.03;;;22.58;30.86
17764;BME280;22245;52.832;13.816;2023-05-11T12:50:08;101392.25;;;22.55;30.60
17764;BME280;22245;52.832;13.816;2023-05-11T12:53:34;101378.47;;;22.57;30.68
17764;BME280;22245;52.832;13.816;2023-05-11T12:56:57;101378.72;;;22.62;31.06
17764;BME280;22245;52.832;13.816;2023-05-11T13:00:19;101380.84;;;22.67;31.46
17764;BME280;22245;52.832;13.816;2023-05-11T13:03:44;101373.13;;;22.70;29.56
17764;BME280;22245;52.832;13.816;2023-05-11T13:07:08;101382.31;;;22.69;29.66
17764;BME280;22245;52.832;13.816;2023-05-11T13:10:31;101379.34;;;22.64;29.26
17764;BME280;22245;52.832;13.816;2023-05-11T13:13:54;101375.59;;;22.65;29.09
17764;BME280;22245;52.832;13.816;2023-05-11T13:17:42;101368.75;;;22.69;29.77
17764;BME280;22245;52.832;13.816;2023-05-11T13:21:05;101365.44;;;22.74;29.19
17764;BME280;22245;52.832;13.816;2023-05-11T13:24:27;101383.41;;;22.75;29.55
17764;BME280;22245;52.832;13.816;2023-05-11T13:27:50;101373.59;;;22.74;27.83
17764;BME280;22245;52.832;13.816;2023-05-11T13:31:12;101372.31;;;22.70;28.40
17764;BME280;22245;52.832;13.816;2023-05-11T13:34:33;101371.47;;;22.69;28.90
17764;BME280;22245;52.832;13.816;2023-05-11T13:37:56;101368.97;;;22.68;28.50
17764;BME280;22245;52.832;13.816;2023-05-11T13:41:17;101369.78;;;22.68;28.61
17764;BME280;22245;52.832;13.816;2023-05-11T13:44:42;101373.13;;;22.70;29.27
17764;BME280;22245;52.832;13.816;2023-05-11T13:48:05;101374.63;;;22.73;29.82
17764;BME280;22245;52.832;13.816;2023-05-11T13:51:27;101383.03;;;22.78;29.75
17764;BME280;22245;52.832;13.816;2023-05-11T13:54:49;101369.25;;;22.80;29.81
17764;BME280;22245;52.832;13.816;2023-05-11T13:58:10;101372.41;;;22.83;30.02
17764;BME280;22245;52.832;13.816;2023-05-11T14:01:33;101367.63;;;22.86;30.43
17764;BME280;22245;52.832;13.816;2023-05-11T14:04:55;101375.97;;;22.84;30.27
17764;BME280;22245;52.832;13.816;2023-05-11T14:08:16;101369.91;;;22.82;30.35
17764;BME280;22245;52.832;13.816;2023-05-11T14:11:37;101363.63;;;22.81;30.48
17764;BME280;22245;52.832;13.816;2023-05-11T14:14:59;101365.75;;;22.86;30.48
17764;BME280;22245;52.832;13.816;2023-05-11T14:18:21;101372.25;;;22.92;31.60
17764;BME280;22245;52.832;13.816;2023-05-11T14:21:45;101363.75;;;22.95;30.90
17764;BME280;22245;52.832;13.816;2023-05-11T14:25:08;101366.63;;;22.93;30.80
17764;BME280;22245;52.832;13.816;2023-05-11T14:28:30;101360.75;;;22.90;31.10
17764;BME280;22245;52.832;13.816;2023-05-11T14:31:51;101365.34;;;22.89;31.48
17764;BME280;22245;52.832;13.816;2023-05-11T14:35:15;101371.19;;;22.86;31.11
17764;BME280;22245;52.832;13.816;2023-05-11T14:38:37;101360.31;;;22.86;31.24
17764;BME280;22245;52.832;13.816;2023-05-11T14:41:58;101368.41;;;22.79;30.65
17764;BME280;22245;52.832;13.816;2023-05-11T14:45:20;101377.59;;;22.78;31.67
17764;BME280;22245;52.832;13.816;2023-05-11T14:48:42;101361.50;;;22.77;31.57
17764;BME280;22245;52.832;13.816;2023-05-11T14:52:05;101356.09;;;22.77;31.45
17764;BME280;22245;52.832;13.816;2023-05-11T14:55:27;101361.19;;;22.93;31.62
17764;BME280;22245;52.832;13.816;2023-05-11T14:58:48;101359.59;;;23.06;31.71
17764;BME280;22245;52.832;13.816;2023-05-11T15:02:10;101368.38;;;23.08;30.79
17764;BME280;22245;52.832;13.816;2023-05-11T15:05:31;101368.16;;;23.03;31.24
17764;BME280;22245;52.832;13.816;2023-05-11T15:08:58;101366.88;;;22.98;31.21
17764;BME280;22245;52.832;13.816;2023-05-11T15:12:19;101377.50;;;22.93;31.20
17764;BME280;22245;52.832;13.816;2023-05-11T15:15:41;101379.38;;;22.93;31.28
17764;BME280;22245;52.832;13.816;2023-05-11T15:19:03;101385.84;;;22.92;31.11
17764;BME280;22245;52.832;13.816;2023-05-11T15:22:25;101385.00;;;22.91;31.70
17764;BME280;22245;52.832;13.816;2023-05-11T15:25:47;101386.22;;;22.89;30.99
17764;BME280;22245;52.832;13.816;2023-05-11T15:29:09;101385.59;;;22.87;30.82
17764;BME280;22245;52.832;13.816;2023-05-11T15:32:31;101391.41;;;22.83;30.84
17764;BME280;22245;52.832;13.816;2023-05-11T15:35:52;101392.03;;;22.79;31.10
17764;BME280;22245;52.832;13.816;2023-05-11T15:39:14;101389.25;;;22.72;30.87
17764;BME280;22245;52.832;13.816;2023-05-11T15:42:38;101400.28;;;22.70;31.27
17764;BME280;22245;52.832;13.816;2023-05-11T15:46:00;101405.72;;;22.70;31.39
17764;BME280;22245;52.832;13.816;2023-05-11T15:49:24;101410.31;;;22.70;31.54
17764;BME280;22245;52.832;13.816;2023-05-11T15:52:46;101416.84;;;22.76;32.13
17764;BME280;22245;52.832;13.816;2023-05-11T15:56:08;101402.28;;;22.83;32.23
17764;BME280;22245;52.832;13.816;2023-05-11T15:59:31;101410.97;;;23.01;32.51
17764;BME280;22245;52.832;13.816;2023-05-11T16:02:52;101407.91;;;23.39;32.01
17764;BME280;22245;52.832;13.816;2023-05-11T16:06:14;101404.69;;;23.64;32.00
17764;BME280;22245;52.832;13.816;2023-05-11T16:09:35;101410.03;;;23.92;31.77
17764;BME280;22245;52.832;13.816;2023-05-11T16:12:57;101411.94;;;23.98;30.60
17764;BME280;22245;52.832;13.816;2023-05-11T16:16:20;101411.28;;;23.90;30.82
17764;BME280;22245;52.832;13.816;2023-05-11T16:19:42;101403.91;;;23.77;29.86
17764;BME280;22245;52.832;13.816;2023-05-11T16:23:03;101413.25;;;23.61;30.34
17764;BME280;22245;52.832;13.816;2023-05-11T16:26:25;101407.31;;;23.44;30.55
17764;BME280;22245;52.832;13.816;2023-05-11T16:29:47;101400.38;;;23.34;31.35
17764;BME280;22245;52.832;13.816;2023-05-11T16:33:10;101407.00;;;23.25;30.83
17764;BME280;22245;52.832;13.816;2023-05-11T16:36:31;101404.34;;;23.10;30.95
17764;BME280;22245;52.832;13.816;2023-05-11T16:39:53;101409.28;;;22.99;31.38
17764;BME280;22245;52.832;13.816;2023-05-11T16:43:15;101412.16;;;22.91;31.64
17764;BME280;22245;52.832;13.816;2023-05-11T16:46:37;101415.84;;;22.83;31.81
17764;BME280;22245;52.832;13.816;2023-05-11T16:50:00;101420.63;;;22.75;31.96
17764;BME280;22245;52.832;13.816;2023-05-11T16:53:22;101420.09;;;22.64;32.46
17764;BME280;22245;52.832;13.816;2023-05-11T16:56:46;101420.22;;;22.56;32.51
17764;BME280;22245;52.832;13.816;2023-05-11T17:00:09;101422.69;;;22.51;33.64
17764;BME280;22245;52.832;13.816;2023-05-11T17:03:31;101423.44;;;22.45;34.35
17764;BME280;22245;52.832;13.816;2023-05-11T17:06:55;101422.72;;;22.36;34.92
17764;BME280;22245;52.832;13.816;2023-05-11T17:10:16;101426.00;;;22.31;34.91
17764;BME280;22245;52.832;13.816;2023-05-11T17:13:38;101424.06;;;22.25;35.45
17764;BME280;22245;52.832;13.816;2023-05-11T17:17:00;101423.16;;;22.18;35.42
17764;BME280;22245;52.832;13.816;2023-05-11T17:20:23;101426.81;;;22.10;34.37
17764;BME280;22245;52.832;13.816;2023-05-11T17:23:46;101430.50;;;22.02;34.16
17764;BME280;22245;52.832;13.816;2023-05-11T17:27:07;101436.66;;;21.96;34.26
17764;BME280;22245;52.832;13.816;2023-05-11T17:30:29;101433.88;;;21.89;34.18
17764;BME280;22245;52.832;13.816;2023-05-11T17:34:06;101437.34;;;21.83;34.37
17764;BME280;22245;52.832;13.816;2023-05-11T17:37:29;101439.75;;;21.78;34.41